F/V Le Dolmen — FHMD — position and weather

sailwx.info

Track history (hours):
 
Tides and Currents Weather Stations Pressure Air Temp Water Temp Dewpoint Dewpoint Depression Visibility Wind Speed Wind Dir Waves Ship Positions

F/V Le Dolmen

Last reported at 2014-Dec-17 01:33 UTC. Time now 2014-Dec-19 01:32 UTC.
Position N 46°30' W 002°04'.

Length 18 m.

Type: Fishing. MMSI: 228374000.

Date/timePositionNaut miles runAvg speedWind from/ knotsBaromVisibWave heightAir tempDewpointWater temp
2014-Dec-17 01:33N 46°30' W 002°04'9 9.0
2014-Dec-17 00:33N 46°29' W 001°51'3 2.9
2014-Dec-16 23:33N 46°30' W 001°48'0 0.0
2014-Dec-16 22:33N 46°30' W 001°48'0 0.0
2014-Dec-16 21:33N 46°30' W 001°48'5 4.8
2014-Dec-16 20:33N 46°29' W 001°54'10 9.5
2014-Dec-16 19:33N 46°31' W 002°08'77 1.8
2014-Dec-15 01:33N 47°33' W 003°15'9 8.9
2014-Dec-15 00:33N 47°41' W 003°22'3 3.1
2014-Dec-14 23:33N 47°44' W 003°22'  
2014-Dec-11 23:34N 47°44' W 003°22'0 0.0
2014-Dec-11 22:34N 47°44' W 003°22'0 0.2
2014-Dec-11 21:34N 47°44' W 003°22'0 0.0
2014-Dec-11 20:34N 47°44' W 003°22'0 0.1
2014-Dec-11 19:34N 47°44' W 003°22'3 2.9
2014-Dec-11 18:34N 47°41' W 003°22'9 8.9
2014-Dec-11 17:34N 47°33' W 003°16'  
2014-Dec-07 04:30N 47°31' W 003°13'9 9.8
2014-Dec-07 03:33N 47°38' W 003°20'5 5.3
2014-Dec-07 02:33N 47°44' W 003°22'0 0.0
2014-Dec-07 01:33N 47°44' W 003°22'  
Track history (hours):
 
Tides and Currents Weather Stations Pressure Air Temp Water Temp Dewpoint Dewpoint Depression Visibility Wind Speed Wind Dir Waves Ship Positions

F/V Le Dolmen

Last reported at 2014-Dec-17 01:33 UTC. Time now 2014-Dec-19 01:32 UTC.
Position N 46°30' W 002°04'.

Length 18 m.

Type: Fishing. MMSI: 228374000.

Date/timePositionNaut miles runAvg speedWind from/ knotsBaromVisibWave heightAir tempDewpointWater temp
2014-Dec-17 01:33N 46°30' W 002°04'9 9.0
2014-Dec-17 00:33N 46°29' W 001°51'3 2.9
2014-Dec-16 23:33N 46°30' W 001°48'0 0.0
2014-Dec-16 22:33N 46°30' W 001°48'0 0.0
2014-Dec-16 21:33N 46°30' W 001°48'5 4.8
2014-Dec-16 20:33N 46°29' W 001°54'10 9.5
2014-Dec-16 19:33N 46°31' W 002°08'77 1.8
2014-Dec-15 01:33N 47°33' W 003°15'9 8.9
2014-Dec-15 00:33N 47°41' W 003°22'3 3.1
2014-Dec-14 23:33N 47°44' W 003°22'  
2014-Dec-11 23:34N 47°44' W 003°22'0 0.0
2014-Dec-11 22:34N 47°44' W 003°22'0 0.2
2014-Dec-11 21:34N 47°44' W 003°22'0 0.0
2014-Dec-11 20:34N 47°44' W 003°22'0 0.1
2014-Dec-11 19:34N 47°44' W 003°22'3 2.9
2014-Dec-11 18:34N 47°41' W 003°22'9 8.9
2014-Dec-11 17:34N 47°33' W 003°16'  
2014-Dec-07 04:30N 47°31' W 003°13'9 9.8
2014-Dec-07 03:33N 47°38' W 003°20'5 5.3
2014-Dec-07 02:33N 47°44' W 003°22'0 0.0
2014-Dec-07 01:33N 47°44' W 003°22'  

Dump ship's entire track history